map of PHC home
Great Circle Mapper logo
PHC - Airport
Location
City:  Port Harcourt, Nigeria
Near (Alt.):Omagwa
Name:Port Harcourt International Airport
ICAO / IATA:DNPO / PHC

Details
Type:Airport (Aerodrome, Airfield)
Use:Public/Civil, International (customs port of entry)
Latitude:500'56"N (5.015494)
Longitude:656'59"E (6.949594)
Datum:WGS 1984
Elevation:87 ft (27 m)
Runways:1
Longest:9846 × 197 ft (3001 × 60 m), paved

Time
Time Zone:UTC+1
Local Time:

Weather
TAF:DNPO 301550Z 3018/3124 17006KT 9999 SCT008 FEW020CB PROB30
TEMPO 3018/3021 5000 -TSRA
BECMG 3022/3024 VRB03KT 8000 FEW006
TEMPO 3103/3107 5000 BR
BECMG 3108/3110 26005KT 9999 BKN012

Related Locations
Nearby:
Farthest:CIS: 12255 mi / 19722 km
Canton Island, KI

Find:

   beyond  
but within

Other Information
Maps:
NOTAMs:
Links:
Sources:

  
flag of Nigeria   

Sectional Chart

Flight Planning
at skyvector.com

Satellite Image

Google Maps Satellite View

 

Copyright © 2004-2014 Karl L. Swartz. All rights reserved.
The Great Circle Mapper name and logo are trademarks of the Great Circle Mapper.
All other trademarks mentioned herein belong to their respective owners.
Please see credits for attibutions and further copyright information.

  Follow gcmap on Facebook Follow gcmap on Twitter

hCard Microformat

Geo Microformat